Latest Coastal Weather Observations for Lihou Reef Lighthouse

IDQ60701

Issued at 1:21 am EST Thursday 5 May 2016 (issued every 10 minutes, with the page automatically refreshed every 10 minutes)

About coastal observations | Map of coastal stations | Coastal observations for QLD | Marine services | Other Formats
Station Details ID: 200880 Name: LIHOU REEF LIGHTHOUSE Lat: -17.13 Lon: 152.15 Height: 0.0 m
Data from the previous 72 hours. | See also: Recent months at Lihou Reef Lighthouse
Date/Time
EST
Temp

°C
Wind Pressure Rain
since 9am
mm
Weather Cloud Vis
km
Sea
Height
m
Swell
Dir
 
Speed
knots
Gust
knots
hPa Trend Height
m
Period
s
Dir
05/01:00am 27.1 SSE 13 14 1014.1 - - - - - - - - -
05/12:30am 27.1 SSE 12 14 1014.5 - - - - - - - - -
05/12:00am 27.4 SSE 13 15 1014.9 - - - - - - - - -
 
Date/Time
EST
Temp

°C
Wind Pressure Rain
since 9am
mm
Weather Cloud Vis
km
Sea
Height
m
Swell
Dir
 
Speed
knots
Gust
knots
hPa Trend Height
m
Period
s
Dir
04/11:30pm 27.2 SSE 13 14 1014.9 - - - - - - - - -
04/11:00pm 27.2 SSE 12 14 1015.2 - - - - - - - - -
04/10:30pm 27.3 SSE 12 14 1015.4 - - - - - - - - -
04/10:00pm 27.4 SSE 12 15 1015.6 - - - - - - - - -
04/09:30pm 27.3 SSE 12 14 1015.4 - - - - - - - - -
04/09:00pm 27.4 SSE 12 15 1015.3 - - - - - - - - -
04/08:30pm 27.4 SSE 12 13 1015.3 - - - - - - - - -
04/08:00pm 27.5 SSE 11 13 1014.9 - - - - - - - - -
04/07:30pm 27.4 SSE 10 11 1014.5 - - - - - - - - -
04/07:00pm 27.5 SSE 10 11 1014.1 - - - - - - - - -
04/06:30pm 26.9 S 9 13 1013.9 - - - - - - - - -
04/06:00pm 26.9 S 13 18 1013.3 - - - - - - - - -
04/05:30pm 27.4 SE 6 8 1013.1 - - - - - - - - -
04/05:00pm 27.5 ESE 7 8 1012.6 - - - - - - - - -
04/04:30pm 27.7 ESE 8 10 1012.0 - - - - - - - - -
04/04:00pm 27.9 ESE 7 9 1011.8 - - - - - - - - -
04/03:30pm 27.8 ESE 7 9 1011.7 - - - - - - - - -
04/03:00pm 27.5 E 7 9 1011.5 - - - - - - - - -
04/02:30pm 27.8 ESE 8 9 1011.6 - - - - - - - - -
04/02:00pm 28.1 ESE 8 9 1012.0 - - - - - - - - -
04/01:30pm 27.8 ESE 7 9 1012.2 - - - - - - - - -
04/01:00pm 27.6 E 9 10 1012.5 - - - - - - - - -
04/12:30pm 27.5 E 8 9 1012.9 - - - - - - - - -
04/12:00pm 27.5 E 8 10 1013.4 - - - - - - - - -
04/11:30am 28.0 ESE 8 9 1013.9 - - - - - - - - -
04/11:00am 28.0 ESE 8 9 1014.3 - - - - - - - - -
04/10:30am 27.6 E 9 10 1014.6 - - - - - - - - -
04/10:00am 28.0 ESE 9 11 1014.9 - - - - - - - - -
04/09:30am 27.7 ESE 9 11 1015.1 - - - - - - - - -
04/09:00am 27.9 SE 8 9 1015.2 - - - - - - - - -
04/08:30am 27.8 ESE 7 9 1015.2 - - - - - - - - -
04/08:00am 28.2 ESE 7 8 1015.1 - - - - - - - - -
04/07:30am 27.9 ESE 7 9 1014.8 - - - - - - - - -
04/07:00am 27.8 ESE 6 8 1014.5 - - - - - - - - -
04/06:30am 27.3 SE 7 8 1014.1 - - - - - - - - -
04/06:00am 26.9 ESE 6 8 1013.8 - - - - - - - - -
04/05:30am 26.9 E 7 9 1013.2 - - - - - - - - -
04/05:00am 26.9 E 7 9 1012.8 - - - - - - - - -
04/04:30am 26.8 E 7 9 1012.8 - - - - - - - - -
04/04:00am 26.9 ESE 7 8 1012.7 - - - - - - - - -
04/03:30am 26.9 ESE 8 9 1012.7 - - - - - - - - -
04/03:00am 26.9 ESE 7 9 1012.7 - - - - - - - - -
04/02:30am 26.8 ESE 7 8 1012.8 - - - - - - - - -
04/02:00am 26.8 ESE 7 8 1013.0 - - - - - - - - -
04/01:30am 26.9 ESE 7 8 1013.2 - - - - - - - - -
04/01:00am 26.9 ESE 7 8 1013.2 - - - - - - - - -
04/12:30am 26.9 ESE 7 9 1013.4 - - - - - - - - -
04/12:00am 27.1 SE 8 9 1013.7 - - - - - - - - -
 
Date/Time
EST
Temp

°C
Wind Pressure Rain
since 9am
mm
Weather Cloud Vis
km
Sea
Height
m
Swell
Dir
 
Speed
knots
Gust
knots
hPa Trend Height
m
Period
s
Dir
03/11:30pm 27.1 ESE 8 10 1013.9 - - - - - - - - -
03/11:00pm 27.2 ESE 9 10 1014.0 - - - - - - - - -
03/10:30pm 27.2 ESE 9 10 1014.0 - - - - - - - - -
03/10:00pm 27.5 ESE 8 10 1014.1 - - - - - - - - -
03/09:30pm 27.5 ESE 8 9 1014.3 - - - - - - - - -
03/09:00pm 27.4 ESE 8 10 1014.1 - - - - - - - - -
03/08:30pm 27.4 ESE 8 10 1014.0 - - - - - - - - -
03/08:00pm 27.3 ESE 8 9 1013.8 - - - - - - - - -
03/07:30pm 27.4 ESE 8 9 1013.5 - - - - - - - - -
03/07:00pm 27.3 ESE 7 9 1013.1 - - - - - - - - -
03/06:30pm 27.4 E 8 9 1012.6 - - - - - - - - -
03/06:00pm 27.4 E 7 8 1012.1 - - - - - - - - -
03/05:30pm 27.4 E 8 10 1011.8 - - - - - - - - -
03/05:00pm 27.6 E 9 11 1011.5 - - - - - - - - -
03/04:30pm 27.6 E 9 11 1011.1 - - - - - - - - -
03/04:00pm 27.5 E 10 11 1010.8 - - - - - - - - -
03/03:30pm 27.6 E 10 11 1010.8 - - - - - - - - -
03/03:00pm 27.7 E 10 13 1010.7 - - - - - - - - -
03/02:30pm 27.5 E 10 12 1010.9 - - - - - - - - -
03/02:00pm 27.4 E 11 13 1010.8 - - - - - - - - -
03/01:30pm 27.5 E 11 13 1011.1 - - - - - - - - -
03/01:00pm 27.6 E 11 13 1011.4 - - - - - - - - -
03/12:30pm 27.2 E 8 11 1011.7 - - - - - - - - -
03/12:00pm 26.1 ESE 4 6 1012.2 - - - - - - - - -
03/11:30am 26.1 ENE 6 8 1012.8 - - - - - - - - -
03/11:00am 26.9 ENE 7 8 1012.9 - - - - - - - - -
03/10:30am 26.4 ENE 9 12 1013.5 - - - - - - - - -
03/10:00am 26.4 ENE 12 15 1013.8 - - - - - - - - -
03/09:30am 26.9 ENE 10 13 1014.2 - - - - - - - - -
03/09:00am 26.3 E 12 14 1014.2 - - - - - - - - -
03/08:30am 27.9 ESE 10 12 1013.9 - - - - - - - - -
03/08:00am 28.3 ESE 8 9 1013.5 - - - - - - - - -
03/07:30am 28.4 ESE 9 10 1013.4 - - - - - - - - -
03/07:00am 28.3 ESE 8 9 1013.2 - - - - - - - - -
03/06:30am 27.5 ESE 8 9 1013.0 - - - - - - - - -
03/06:00am 27.5 E 9 11 1012.7 - - - - - - - - -
03/05:30am 27.4 E 9 10 1012.5 - - - - - - - - -
03/05:00am 27.3 E 8 9 1012.1 - - - - - - - - -
03/04:30am 26.8 ESE 5 6 1011.9 - - - - - - - - -
03/04:00am 26.5 ESE 5 6 1011.9 - - - - - - - - -
03/03:30am 26.2 ESE 5 7 1011.7 - - - - - - - - -
03/03:00am 25.9 SSE 5 7 1012.1 - - - - - - - - -
03/02:30am 25.6 S 6 7 1012.2 - - - - - - - - -
03/02:00am 26.0 S 10 12 1012.4 - - - - - - - - -
03/01:30am 25.1 S 12 15 1012.7 - - - - - - - - -
03/01:00am 24.4 SSE 11 13 1013.2 - - - - - - - - -
03/12:30am 24.5 ESE 15 17 1013.6 - - - - - - - - -
03/12:00am 25.3 SE 11 14 1013.6 - - - - - - - - -
 
Date/Time
EST
Temp

°C
Wind Pressure Rain
since 9am
mm
Weather Cloud Vis
km
Sea
Height
m
Swell
Dir
 
Speed
knots
Gust
knots
hPa Trend Height
m
Period
s
Dir
02/11:30pm 25.4 ESE 13 15 1013.8 - - - - - - - - -
02/11:00pm 25.5 ESE 13 15 1014.0 - - - - - - - - -
02/10:30pm 26.2 ESE 13 14 1014.1 - - - - - - - - -
02/10:00pm 26.5 ESE 10 12 1014.2 - - - - - - - - -
02/09:30pm 27.0 SE 10 12 1014.2 - - - - - - - - -
02/09:00pm 27.0 SE 10 12 1014.2 - - - - - - - - -
02/08:30pm 27.3 SE 11 13 1014.1 - - - - - - - - -
02/08:00pm 26.9 SE 11 14 1014.0 - - - - - - - - -
02/07:30pm 26.8 ESE 11 13 1013.8 - - - - - - - - -
02/07:00pm 26.5 SE 13 15 1013.4 - - - - - - - - -
02/06:30pm 26.6 SE 13 15 1013.0 - - - - - - - - -
02/06:00pm 26.6 ESE 12 15 1012.7 - - - - - - - - -
02/05:30pm 26.8 ESE 12 14 1012.4 - - - - - - - - -
02/05:00pm 26.8 ESE 12 14 1012.1 - - - - - - - - -
02/04:30pm 27.0 ESE 11 13 1011.9 - - - - - - - - -
02/04:00pm 26.9 ESE 12 14 1011.5 - - - - - - - - -
02/03:30pm 26.8 ESE 14 15 1011.3 - - - - - - - - -
02/03:00pm 26.8 ESE 12 14 1011.3 - - - - - - - - -
02/02:30pm 26.8 ESE 13 15 1011.5 - - - - - - - - -
02/02:00pm 27.2 ESE 12 15 1011.5 - - - - - - - - -
02/01:30pm 27.3 ESE 13 15 1011.8 - - - - - - - - -
02/01:00pm 27.4 ESE 12 15 1012.1 - - - - - - - - -
02/12:30pm 27.2 ESE 12 14 1012.6 - - - - - - - - -
02/12:00pm 27.3 ESE 11 12 1013.0 - - - - - - - - -
02/11:30am 27.2 ESE 12 14 1013.4 - - - - - - - - -
02/11:00am 27.7 ESE 11 13 1013.8 - - - - - - - - -
02/10:30am 27.7 ESE 10 12 1014.1 - - - - - - - - -
02/10:00am 27.7 ESE 11 13 1014.3 - - - - - - - - -
02/09:30am 27.4 ESE 11 13 1014.7 - - - - - - - - -
02/09:00am 27.9 ESE 10 11 1014.7 - - - - - - - - -
02/08:30am 28.0 ESE 8 10 1014.6 - - - - - - - - -
02/08:00am 27.2 SSE 8 9 1014.5 - - - - - - - - -
02/07:30am 27.2 SSE 8 9 1014.3 - - - - - - - - -
02/07:00am 27.2 SSE 8 11 1014.0 - - - - - - - - -
02/06:30am 27.0 SSE 11 12 1014.0 - - - - - - - - -
02/06:00am 27.0 SE 10 12 1013.7 - - - - - - - - -
02/05:30am 26.8 SE 9 11 1013.3 - - - - - - - - -
02/05:00am 26.9 SE 8 9 1013.0 - - - - - - - - -
02/04:30am 26.8 SE 8 9 1012.8 - - - - - - - - -
02/04:00am 26.9 ESE 10 12 1012.6 - - - - - - - - -
02/03:30am 27.0 SE 10 11 1012.3 - - - - - - - - -
02/03:00am 27.1 SE 10 12 1012.2 - - - - - - - - -
02/02:30am 27.2 SE 10 11 1012.5 - - - - - - - - -
02/02:00am 27.1 SSE 12 13 1012.9 - - - - - - - - -
02/01:30am 27.2 SSE 12 15 1013.3 - - - - - - - - -

Other Formats:

Comma delimited format used in spreadsheet applications
http://www.bom.gov.au/fwo/IDQ60701/IDQ60701.94293.axf

JavaScript Object Notation format (JSON) in row-major order
http://www.bom.gov.au/fwo/IDQ60701/IDQ60701.94293.json